Time;durP1;ratioP1;P1;durP2;ratioP2;P2;SDS_P1;SDS_P2;PMS_P1;PMS_P2;Temp;Humidity;BMP_temperature;BMP_pressure;BME280_temperature;BME280_humidity;BME280_pressure;Samples;Min_cycle;Max_cycle;Signal;HPM_P1;HPM_P2
2022/10/20 00:01:19;;;;;;;4.87;2.90;;;11.40;99.90;;;;;;5130409;27;20721;-82
2022/10/20 00:03:46;;;;;;;5.30;3.30;;;11.40;99.90;;;;;;5133556;27;21022;-83
2022/10/20 00:06:15;;;;;;;3.80;3.10;;;11.40;99.90;;;;;;5133079;27;20657;-83
2022/10/20 00:08:43;;;;;;;4.57;4.17;;;11.50;99.90;;;;;;5133904;27;20658;-83
2022/10/20 00:11:12;;;;;;;3.10;2.80;;;11.50;99.90;;;;;;5133995;27;20616;-83
2022/10/20 00:13:40;;;;;;;9.57;5.70;;;11.60;99.90;;;;;;5114537;27;20612;-82
2022/10/20 00:16:09;;;;;;;4.40;3.80;;;11.60;99.90;;;;;;5117817;27;20718;-83
2022/10/20 00:18:37;;;;;;;6.00;4.03;;;;;;;;;;5133910;27;20642;-83
2022/10/20 00:21:06;;;;;;;4.53;4.07;;;11.70;99.90;;;;;;5133907;27;20719;-82
2022/10/20 00:23:34;;;;;;;4.13;3.77;;;;;;;;;;5134004;27;20613;-83
2022/10/20 00:26:02;;;;;;;4.37;3.40;;;11.70;99.90;;;;;;5133583;27;20618;-82
2022/10/20 00:28:29;;;;;;;4.17;3.80;;;11.70;99.90;;;;;;5133323;27;20646;-82
2022/10/20 00:30:56;;;;;;;4.60;4.13;;;11.90;99.90;;;;;;5133281;27;20603;-82
2022/10/20 00:33:25;;;;;;;3.50;3.00;;;11.80;99.90;;;;;;5133604;27;20614;-82
2022/10/20 00:35:52;;;;;;;4.37;3.60;;;11.80;99.90;;;;;;5130553;27;20654;-82
2022/10/20 00:38:19;;;;;;;4.93;4.50;;;11.80;99.90;;;;;;5112762;28;20712;-83
2022/10/20 00:40:46;;;;;;;5.37;4.40;;;11.70;99.90;;;;;;5113315;28;21318;-83
2022/10/20 00:43:14;;;;;;;3.90;3.60;;;11.70;99.90;;;;;;5112522;28;20615;-82
2022/10/20 00:45:42;;;;;;;4.60;3.70;;;11.60;99.90;;;;;;5113109;28;20643;-83
2022/10/20 00:48:16;;;;;;;6.23;4.00;;;11.50;99.90;;;;;;5112656;28;20673;-81
2022/10/20 00:50:52;;;;;;;6.67;3.47;;;11.40;99.90;;;;;;5112847;28;20652;-82
2022/10/20 00:53:21;;;;;;;3.63;3.13;;;11.60;99.90;;;;;;5112811;28;20646;-83
2022/10/20 00:55:50;;;;;;;11.60;4.43;;;11.10;99.90;;;;;;5112095;28;21014;-82
2022/10/20 00:58:17;;;;;;;5.83;4.20;;;11.20;99.90;;;;;;5115203;27;21275;-82
2022/10/20 01:00:46;;;;;;;4.60;3.27;;;11.30;99.90;;;;;;5133310;27;20714;-82
2022/10/20 01:03:17;;;;;;;4.23;3.80;;;11.20;99.90;;;;;;5132770;27;21146;-83
2022/10/20 01:05:45;;;;;;;3.73;3.43;;;11.40;99.90;;;;;;5131889;27;20655;-81
2022/10/20 01:08:12;;;;;;;3.13;2.83;;;11.30;99.90;;;;;;5131958;27;20738;-84
2022/10/20 01:10:44;;;;;;;5.50;3.83;;;11.30;99.90;;;;;;5133327;27;20619;-83
2022/10/20 01:13:19;;;;;;;4.67;4.10;;;11.30;99.90;;;;;;5132861;27;20607;-83
2022/10/20 01:15:56;;;;;;;3.63;3.23;;;11.40;99.90;;;;;;5132752;27;20603;-83
2022/10/20 01:18:29;;;;;;;3.93;3.50;;;11.50;99.90;;;;;;5132304;27;20618;-82
2022/10/20 01:21:27;;;;;;;4.40;4.00;;;11.50;99.90;;;;;;5132366;27;20664;-83
2022/10/20 01:24:20;;;;;;;4.17;3.80;;;11.50;99.90;;;;;;5132519;27;20602;-82
2022/10/20 01:27:13;;;;;;;4.37;3.17;;;11.50;99.90;;;;;;5132552;27;21019;-84
2022/10/20 01:29:45;;;;;;;4.03;3.67;;;11.30;99.90;;;;;;5129519;27;20626;-83
2022/10/20 01:32:22;;;;;;;4.17;3.53;;;11.40;99.90;;;;;;5132562;27;20953;-83
2022/10/20 01:34:53;;;;;;;3.97;2.83;;;11.50;99.90;;;;;;5132394;27;20721;-82
2022/10/20 01:37:28;;;;;;;4.50;3.30;;;11.50;99.90;;;;;;5131948;27;20615;-83
2022/10/20 01:40:02;;;;;;;4.07;3.70;;;11.40;99.90;;;;;;5132141;27;20730;-82
2022/10/20 01:42:30;;;;;;;6.90;4.50;;;11.40;99.90;;;;;;5132302;27;20701;-81
2022/10/20 01:45:02;;;;;;;3.30;3.10;;;11.50;99.90;;;;;;5132353;27;21028;-82
2022/10/20 01:47:31;;;;;;;5.80;4.30;;;11.50;99.90;;;;;;5131940;27;20603;-83
2022/10/20 01:49:58;;;;;;;6.70;4.20;;;11.50;99.90;;;;;;5131538;27;20637;-83
2022/10/20 01:52:28;;;;;;;5.30;4.00;;;11.50;99.90;;;;;;5132287;27;20611;-84
2022/10/20 01:54:56;;;;;;;6.13;5.53;;;11.40;99.90;;;;;;5132086;27;20618;-82
2022/10/20 01:57:35;;;;;;;4.63;4.07;;;11.40;99.90;;;;;;5131929;27;20664;-83
2022/10/20 02:00:07;;;;;;;6.80;4.03;;;11.40;99.90;;;;;;5131839;27;20670;-82
2022/10/20 02:02:45;;;;;;;6.17;4.10;;;11.60;99.90;;;;;;5131434;27;20599;-82
2022/10/20 02:05:33;;;;;;;7.83;5.20;;;11.60;99.90;;;;;;5131611;27;20711;-83
2022/10/20 02:08:07;;;;;;;3.60;2.47;;;11.60;99.90;;;;;;5132020;27;20615;-83
2022/10/20 02:10:41;;;;;;;6.67;4.40;;;11.60;99.90;;;;;;5131647;27;20637;-82
2022/10/20 02:13:12;;;;;;;4.20;3.40;;;11.60;99.90;;;;;;5131829;27;20977;-82
2022/10/20 02:15:44;;;;;;;6.67;5.90;;;11.50;99.90;;;;;;5131339;27;20729;-83
2022/10/20 02:18:17;;;;;;;6.07;4.60;;;11.30;99.90;;;;;;5131986;27;20711;-82
2022/10/20 02:20:48;;;;;;;5.53;3.70;;;11.40;99.90;;;;;;5131431;27;20685;-82
2022/10/20 02:23:16;;;;;;;4.67;4.27;;;11.40;99.90;;;;;;5131078;27;20610;-83
2022/10/20 02:25:43;;;;;;;4.40;3.63;;;11.50;99.90;;;;;;5130904;27;21181;-83
2022/10/20 02:28:13;;;;;;;7.67;3.47;;;11.40;99.90;;;;;;5131277;27;21047;-84
2022/10/20 02:30:42;;;;;;;4.10;3.80;;;11.40;99.90;;;;;;5131225;27;20630;-83
2022/10/20 02:33:10;;;;;;;7.03;4.33;;;11.40;99.90;;;;;;5131314;27;21005;-82
2022/10/20 02:35:37;;;;;;;5.93;3.90;;;11.70;99.90;;;;;;5130186;27;20602;-81
2022/10/20 02:38:04;;;;;;;6.27;3.70;;;11.50;99.90;;;;;;5110162;28;20619;-81
2022/10/20 02:40:31;;;;;;;5.80;4.73;;;11.50;99.90;;;;;;5110826;28;21267;-82
2022/10/20 02:42:58;;;;;;;5.73;4.57;;;11.50;99.90;;;;;;5110671;28;20612;-82
2022/10/20 02:45:25;;;;;;;7.90;4.50;;;11.50;99.90;;;;;;5110591;28;21103;-82
2022/10/20 02:47:53;;;;;;;3.27;2.37;;;11.60;99.90;;;;;;5110223;28;21196;-82
2022/10/20 02:50:20;;;;;;;6.90;5.20;;;11.20;99.90;;;;;;5109994;28;20604;-84
2022/10/20 02:52:47;;;;;;;4.67;4.23;;;11.40;99.90;;;;;;5109374;28;20635;-82
2022/10/20 02:55:14;;;;;;;4.50;4.10;;;11.60;99.90;;;;;;5110717;28;20623;-83
2022/10/20 02:57:41;;;;;;;5.43;4.60;;;11.30;99.90;;;;;;5110740;28;21024;-82
2022/10/20 03:00:10;;;;;;;5.03;3.80;;;11.30;99.90;;;;;;5129070;28;20719;-82
2022/10/20 03:02:36;;;;;;;5.13;4.63;;;11.30;99.90;;;;;;5131068;27;20602;-82
2022/10/20 03:05:06;;;;;;;7.20;3.50;;;11.40;99.90;;;;;;5130338;28;20649;-82
2022/10/20 03:07:33;;;;;;;3.20;2.90;;;11.20;99.90;;;;;;5130417;28;20674;-83
2022/10/20 03:10:00;;;;;;;5.70;2.70;;;11.00;99.90;;;;;;5131212;28;20729;-82
2022/10/20 03:12:26;;;;;;;5.00;3.40;;;11.00;99.90;;;;;;5130610;28;20610;-83
2022/10/20 03:14:53;;;;;;;6.63;3.80;;;11.10;99.90;;;;;;5131173;28;20694;-83
2022/10/20 03:17:20;;;;;;;6.07;4.07;;;11.20;99.90;;;;;;5130099;28;20651;-82
2022/10/20 03:19:47;;;;;;;7.00;4.50;;;11.10;99.90;;;;;;5130810;28;20643;-82
2022/10/20 03:22:15;;;;;;;4.27;3.87;;;11.10;99.90;;;;;;5131147;28;20625;-81
2022/10/20 03:24:42;;;;;;;4.53;3.70;;;11.10;99.90;;;;;;5131005;28;20947;-84
2022/10/20 03:27:09;;;;;;;7.23;4.97;;;9.90;99.90;;;;;;5131434;28;21011;-82
2022/10/20 03:29:36;;;;;;;6.73;5.00;;;11.10;99.90;;;;;;5130496;28;20725;-82
2022/10/20 03:32:02;;;;;;;5.80;4.23;;;11.20;99.90;;;;;;5130379;28;20599;-83
2022/10/20 03:34:29;;;;;;;5.60;4.97;;;11.30;99.90;;;;;;5130782;28;20698;-83
2022/10/20 03:36:56;;;;;;;7.17;4.57;;;11.10;99.90;;;;;;5131236;27;21067;-82
2022/10/20 03:39:24;;;;;;;5.87;4.87;;;11.30;99.90;;;;;;5134735;27;20696;-82
2022/10/20 03:41:51;;;;;;;5.23;3.47;;;11.10;99.90;;;;;;5134700;27;20713;-81
2022/10/20 03:44:18;;;;;;;4.40;4.00;;;11.00;99.90;;;;;;5134511;27;20711;-82
2022/10/20 03:46:45;;;;;;;4.63;3.20;;;11.10;99.90;;;;;;5133813;27;20683;-83
2022/10/20 03:49:12;;;;;;;8.33;5.10;;;12.00;99.90;;;;;;5128649;27;20604;-83
2022/10/20 03:51:38;;;;;;;5.60;3.00;;;11.30;99.90;;;;;;5114659;28;20651;-82
2022/10/20 03:54:05;;;;;;;5.73;4.37;;;11.30;99.90;;;;;;5114304;28;20623;-83
2022/10/20 03:56:33;;;;;;;8.20;4.50;;;11.40;99.90;;;;;;5114404;28;20618;-82
2022/10/20 03:59:00;;;;;;;5.20;4.00;;;11.40;99.90;;;;;;5127315;27;20613;-84
2022/10/20 04:01:30;;;;;;;5.87;4.00;;;11.60;99.90;;;;;;5125744;27;20640;-83
2022/10/20 04:03:56;;;;;;;5.40;4.57;;;11.50;99.90;;;;;;5117013;27;20643;-81
2022/10/20 04:06:23;;;;;;;4.83;4.40;;;11.50;99.90;;;;;;5114002;28;20647;-82
2022/10/20 04:08:50;;;;;;;7.20;4.40;;;11.50;99.90;;;;;;5123908;27;20615;-84
2022/10/20 04:11:17;;;;;;;4.23;3.83;;;11.50;99.90;;;;;;5122346;27;21149;-82
2022/10/20 04:13:46;;;;;;;3.93;3.53;;;11.60;99.90;;;;;;5122874;27;20631;-83
2022/10/20 04:16:13;;;;;;;5.93;5.37;;;11.60;99.90;;;;;;5124780;27;20647;-83
2022/10/20 04:18:39;;;;;;;6.33;4.80;;;11.60;99.90;;;;;;5127764;27;20698;-84
2022/10/20 04:21:07;;;;;;;9.70;5.07;;;11.70;99.90;;;;;;5134508;27;20657;-84
2022/10/20 04:23:34;;;;;;;5.03;4.10;;;11.70;99.90;;;;;;5134803;27;21153;-82
2022/10/20 04:26:06;;;;;;;4.60;4.20;;;11.70;99.90;;;;;;5134717;27;21224;-82
2022/10/20 04:28:33;;;;;;;5.77;5.27;;;11.70;99.90;;;;;;5134938;27;20673;-82
2022/10/20 04:31:02;;;;;;;4.73;3.77;;;11.70;99.90;;;;;;5134603;27;20606;-83
2022/10/20 04:33:29;;;;;;;6.20;5.13;;;;;;;;;;5130165;27;20673;-83
2022/10/20 04:35:59;;;;;;;5.00;3.40;;;11.70;99.90;;;;;;5120952;27;21190;-83
2022/10/20 04:38:33;;;;;;;4.83;3.60;;;11.40;99.90;;;;;;5123303;27;20645;-84
2022/10/20 04:41:03;;;;;;;5.00;4.60;;;11.70;99.90;;;;;;5124805;27;20863;-83
2022/10/20 04:43:30;;;;;;;5.77;4.83;;;11.60;99.90;;;;;;5123709;27;20622;-84
2022/10/20 04:46:01;;;;;;;24.73;4.03;;;11.70;99.90;;;;;;5126184;27;20713;-83
2022/10/20 04:48:28;;;;;;;7.97;5.07;;;11.60;99.90;;;;;;5130587;27;20672;-83
2022/10/20 04:51:03;;;;;;;6.23;5.07;;;11.70;99.90;;;;;;5120181;27;20716;-81
2022/10/20 04:53:30;;;;;;;6.60;4.50;;;11.70;99.90;;;;;;5111957;28;20595;-81
2022/10/20 04:55:57;;;;;;;6.33;5.40;;;11.80;99.90;;;;;;5112541;28;20673;-83
2022/10/20 04:58:25;;;;;;;5.50;4.97;;;13.20;99.90;;;;;;5115583;27;20611;-82
2022/10/20 05:00:52;;;;;;;6.27;4.50;;;11.70;99.90;;;;;;5132275;27;20658;-83
2022/10/20 05:03:20;;;;;;;5.93;5.43;;;11.70;99.90;;;;;;5129628;27;20705;-82
2022/10/20 05:05:48;;;;;;;6.40;4.87;;;11.80;99.90;;;;;;5133524;27;20614;-83
2022/10/20 05:08:14;;;;;;;8.67;5.03;;;11.80;99.90;;;;;;5134806;27;20606;-84
2022/10/20 05:10:42;;;;;;;6.13;5.23;;;11.70;99.90;;;;;;5133014;27;20615;-82
2022/10/20 05:13:09;;;;;;;7.50;4.57;;;11.80;99.90;;;;;;5118122;27;20618;-83
2022/10/20 05:15:36;;;;;;;6.73;3.93;;;11.80;99.90;;;;;;5133419;27;20686;-83
2022/10/20 05:18:03;;;;;;;6.37;5.77;;;11.80;99.90;;;;;;5135764;27;20603;-81
2022/10/20 05:20:31;;;;;;;6.17;4.27;;;11.80;99.90;;;;;;5134202;27;20676;-82
2022/10/20 05:22:58;;;;;;;4.80;4.13;;;11.80;99.90;;;;;;5134710;27;20663;-83
2022/10/20 05:25:25;;;;;;;8.43;5.37;;;11.80;99.90;;;;;;5134277;27;20602;-83
2022/10/20 05:27:52;;;;;;;6.67;4.97;;;11.80;99.90;;;;;;5133686;27;20634;-82
2022/10/20 05:30:19;;;;;;;7.23;4.20;;;11.80;99.90;;;;;;5136157;27;21255;-84
2022/10/20 05:32:46;;;;;;;5.33;4.43;;;11.80;99.90;;;;;;5136569;27;20634;-85
2022/10/20 05:35:13;;;;;;;4.10;3.60;;;11.70;99.90;;;;;;5135560;27;20607;-85
2022/10/20 05:37:41;;;;;;;6.53;4.20;;;11.80;99.90;;;;;;5117141;27;20711;-85
2022/10/20 05:40:10;;;;;;;6.07;3.97;;;11.70;99.90;;;;;;5114474;28;20724;-82
2022/10/20 05:42:36;;;;;;;6.10;3.90;;;11.60;99.90;;;;;;5114133;28;20669;-83
2022/10/20 05:45:04;;;;;;;11.50;5.40;;;11.60;99.90;;;;;;5115019;28;21016;-83
2022/10/20 05:47:31;;;;;;;3.53;3.23;;;11.70;99.90;;;;;;5114100;28;20634;-82
2022/10/20 05:49:58;;;;;;;6.73;4.20;;;11.60;99.90;;;;;;5114732;28;20612;-81
2022/10/20 05:52:25;;;;;;;5.10;3.63;;;;;;;;;;5114964;28;20655;-86
2022/10/20 05:54:53;;;;;;;6.77;4.50;;;11.60;99.90;;;;;;5125030;27;20764;-84
2022/10/20 05:57:20;;;;;;;7.13;4.83;;;11.80;99.90;;;;;;5133506;27;20606;-85
2022/10/20 05:59:47;;;;;;;5.70;4.77;;;11.70;99.90;;;;;;5133484;27;20664;-85
2022/10/20 06:02:14;;;;;;;7.00;5.57;;;11.60;99.90;;;;;;5128410;27;20599;-83
2022/10/20 06:04:40;;;;;;;8.70;4.70;;;11.60;99.90;;;;;;5123370;27;20627;-84
2022/10/20 06:07:08;;;;;;;8.87;5.60;;;;;;;;;;5128186;27;20634;-84
2022/10/20 06:09:36;;;;;;;6.53;5.07;;;11.50;99.90;;;;;;5115922;27;20616;-83
2022/10/20 06:12:05;;;;;;;4.10;3.70;;;11.70;99.90;;;;;;5112297;27;21104;-83
2022/10/20 06:14:32;;;;;;;4.47;4.07;;;11.60;99.90;;;;;;5120214;27;20619;-83
2022/10/20 06:16:59;;;;;;;8.03;3.53;;;11.70;99.90;;;;;;5133672;27;20614;-83
2022/10/20 06:19:26;;;;;;;4.87;3.73;;;11.70;99.90;;;;;;5135235;27;20654;-83
2022/10/20 06:21:53;;;;;;;9.13;5.30;;;11.50;99.90;;;;;;5116054;27;20706;-83
2022/10/20 06:24:21;;;;;;;5.20;4.17;;;11.50;99.90;;;;;;5115078;28;20652;-85
2022/10/20 06:26:48;;;;;;;4.27;3.87;;;11.50;99.90;;;;;;5114453;28;20643;-83
2022/10/20 06:29:20;;;;;;;4.33;2.90;;;11.60;99.90;;;;;;5112827;28;20665;-84
2022/10/20 06:31:49;;;;;;;5.47;3.70;;;11.60;99.90;;;;;;5114953;28;20672;-83
2022/10/20 06:34:17;;;;;;;6.00;4.20;;;11.60;99.90;;;;;;5132409;27;20646;-83
2022/10/20 06:36:45;;;;;;;5.33;3.80;;;11.60;99.90;;;;;;5133541;27;20666;-84
2022/10/20 06:39:14;;;;;;;16.73;5.03;;;11.40;99.90;;;;;;5118893;27;21169;-84
2022/10/20 06:41:42;;;;;;;5.23;4.67;;;11.50;99.90;;;;;;5112284;28;20643;-83
2022/10/20 06:44:08;;;;;;;5.03;4.43;;;11.50;99.90;;;;;;5114041;28;20611;-83
2022/10/20 06:46:37;;;;;;;5.77;3.80;;;11.50;99.90;;;;;;5113493;28;20607;-84
2022/10/20 06:49:06;;;;;;;6.50;4.10;;;12.00;99.90;;;;;;5114581;28;20608;-82
2022/10/20 06:51:34;;;;;;;6.80;5.50;;;11.50;99.90;;;;;;5114944;28;20607;-83
2022/10/20 06:54:01;;;;;;;5.97;4.60;;;11.60;99.90;;;;;;5113195;28;20667;-84
2022/10/20 06:56:30;;;;;;;9.70;5.43;;;11.60;99.90;;;;;;5124732;28;20682;-84
2022/10/20 06:58:59;;;;;;;5.27;4.60;;;11.80;99.90;;;;;;5134935;28;20653;-82
2022/10/20 07:01:27;;;;;;;5.00;3.80;;;11.80;99.90;;;;;;5134319;28;20658;-83
2022/10/20 07:03:57;;;;;;;4.33;3.83;;;11.80;99.90;;;;;;5133659;28;21386;-83
2022/10/20 07:06:27;;;;;;;8.60;5.00;;;11.80;99.90;;;;;;5132589;28;20688;-83
2022/10/20 07:08:55;;;;;;;6.17;4.17;;;11.70;99.90;;;;;;5130462;28;20622;-83
2022/10/20 07:11:24;;;;;;;6.47;4.33;;;11.90;99.90;;;;;;5133384;27;20713;-82
2022/10/20 07:13:52;;;;;;;4.83;3.93;;;12.20;99.90;;;;;;5117922;27;21245;-83
2022/10/20 07:16:21;;;;;;;4.77;4.00;;;12.20;99.90;;;;;;5123320;27;20622;-83
2022/10/20 07:18:48;;;;;;;5.33;4.57;;;12.20;99.90;;;;;;5137589;27;20603;-85
2022/10/20 07:21:17;;;;;;;4.30;4.00;;;12.00;99.90;;;;;;5121808;27;21381;-82
2022/10/20 07:23:45;;;;;;;9.10;3.70;;;12.10;99.90;;;;;;5117792;28;20615;-83
2022/10/20 07:26:14;;;;;;;4.13;3.67;;;12.10;99.90;;;;;;5117235;28;20615;-83
2022/10/20 07:28:43;;;;;;;5.83;4.07;;;12.10;99.90;;;;;;5116260;28;20611;-81
2022/10/20 07:31:12;;;;;;;6.03;4.00;;;11.70;99.90;;;;;;5116803;28;20633;-82
2022/10/20 07:33:39;;;;;;;7.87;5.00;;;12.20;99.90;;;;;;5129111;27;20614;-83
2022/10/20 07:36:12;;;;;;;6.33;4.30;;;12.10;99.90;;;;;;5138079;27;20607;-82
2022/10/20 07:38:41;;;;;;;5.63;3.90;;;12.30;99.90;;;;;;5136201;27;20726;-83
2022/10/20 07:41:09;;;;;;;4.87;3.50;;;;;;;;;;5136956;27;20655;-82
2022/10/20 07:43:36;;;;;;;4.50;4.10;;;12.30;99.90;;;;;;5137838;27;20621;-83
2022/10/20 07:46:04;;;;;;;8.07;4.20;;;12.40;99.90;;;;;;5134910;27;20607;-82
2022/10/20 07:48:32;;;;;;;6.27;4.10;;;;;;;;;;5115685;28;21040;-83
2022/10/20 07:51:14;;;;;;;4.83;4.33;;;12.60;99.90;;;;;;5116270;28;21176;-80
2022/10/20 07:53:42;;;;;;;7.07;4.03;;;12.60;99.90;;;;;;5114842;28;20620;-84
2022/10/20 07:56:09;;;;;;;4.90;3.50;;;12.60;99.90;;;;;;5115262;28;20674;-83
2022/10/20 07:58:36;;;;;;;4.10;3.70;;;12.70;99.90;;;;;;5119927;27;20627;-82
2022/10/20 08:01:04;;;;;;;4.17;3.47;;;12.70;99.90;;;;;;5135820;27;20646;-82
2022/10/20 08:03:31;;;;;;;6.47;2.90;;;12.80;99.90;;;;;;5135283;27;20674;-85
2022/10/20 08:05:58;;;;;;;3.37;3.07;;;12.90;99.90;;;;;;5135931;27;20676;-84
2022/10/20 08:08:26;;;;;;;6.97;4.70;;;13.00;99.90;;;;;;5135701;27;21180;-84
2022/10/20 08:10:54;;;;;;;4.00;3.60;;;13.00;99.90;;;;;;5136603;27;20599;-84
2022/10/20 08:13:21;;;;;;;4.10;3.57;;;13.00;99.90;;;;;;5130230;27;20619;-83
2022/10/20 08:15:48;;;;;;;3.90;3.10;;;;;;;;;;5118993;27;20607;-84
2022/10/20 08:18:15;;;;;;;5.27;4.60;;;13.10;99.90;;;;;;5135233;27;20627;-83
2022/10/20 08:20:43;;;;;;;4.43;4.00;;;13.20;99.90;;;;;;5135176;27;21244;-82
2022/10/20 08:23:10;;;;;;;4.10;3.07;;;13.20;99.90;;;;;;5134565;27;20615;-86
2022/10/20 08:25:37;;;;;;;6.10;3.93;;;13.50;99.90;;;;;;5136345;27;21044;-82
2022/10/20 08:28:06;;;;;;;9.03;4.57;;;13.20;99.90;;;;;;5135094;27;20633;-82
2022/10/20 08:30:34;;;;;;;5.00;3.17;;;13.50;99.90;;;;;;5136258;27;20607;-83
2022/10/20 08:33:00;;;;;;;5.80;4.20;;;13.50;99.90;;;;;;5135764;27;20679;-82
2022/10/20 08:35:28;;;;;;;22.67;4.10;;;13.60;99.90;;;;;;5135930;27;20741;-82
2022/10/20 08:37:55;;;;;;;5.80;3.33;;;13.70;99.90;;;;;;5135371;27;20625;-82
2022/10/20 08:40:24;;;;;;;3.70;2.83;;;13.70;99.90;;;;;;5135240;27;20611;-83
2022/10/20 08:42:52;;;;;;;3.87;3.00;;;13.90;99.90;;;;;;5135961;27;20662;-83
2022/10/20 08:45:23;;;;;;;4.50;3.90;;;14.00;99.90;;;;;;5136564;27;21310;-83
2022/10/20 08:47:52;;;;;;;3.53;3.23;;;14.00;99.90;;;;;;5135736;27;20614;-84
2022/10/20 08:50:20;;;;;;;9.47;4.33;;;14.00;99.90;;;;;;5136011;27;20983;-83
2022/10/20 08:52:52;;;;;;;5.37;3.70;;;14.00;99.90;;;;;;5135652;27;20611;-84
2022/10/20 08:55:26;;;;;;;3.30;3.00;;;14.20;99.90;;;;;;5135685;27;20647;-82
2022/10/20 08:57:56;;;;;;;4.60;4.03;;;14.30;99.90;;;;;;5136309;27;20608;-84
2022/10/20 09:00:26;;;;;;;3.90;3.57;;;14.40;99.90;;;;;;5136155;27;20674;-82
2022/10/20 09:02:54;;;;;;;4.20;3.70;;;14.40;99.90;;;;;;5136027;27;20701;-82
2022/10/20 09:05:24;;;;;;;2.90;2.70;;;14.50;99.90;;;;;;5134838;27;20625;-83
2022/10/20 09:07:52;;;;;;;3.80;3.40;;;14.50;99.90;;;;;;5135882;27;20622;-82
2022/10/20 09:10:31;;;;;;;3.43;2.90;;;14.70;99.90;;;;;;5136459;27;20606;-84
2022/10/20 09:12:58;;;;;;;3.50;3.20;;;14.80;99.90;;;;;;5134023;27;20675;-82
2022/10/20 09:15:27;;;;;;;3.70;3.20;;;14.90;99.90;;;;;;5115722;28;21228;-84
2022/10/20 09:17:58;;;;;;;3.40;2.83;;;15.00;99.90;;;;;;5134160;27;21188;-85
2022/10/20 09:20:30;;;;;;;3.23;2.93;;;15.10;99.90;;;;;;5135676;27;20671;-85
2022/10/20 09:22:57;;;;;;;4.30;3.10;;;15.00;99.90;;;;;;5137485;27;21262;-85
2022/10/20 09:25:26;;;;;;;3.37;3.07;;;14.90;99.90;;;;;;5135601;27;20641;-85
2022/10/20 09:27:54;;;;;;;3.17;2.80;;;14.70;99.90;;;;;;5135376;27;21175;-82
2022/10/20 09:30:24;;;;;;;3.20;2.60;;;14.90;99.90;;;;;;5134253;27;20604;-82
2022/10/20 09:32:52;;;;;;;3.03;2.13;;;14.80;99.90;;;;;;5135287;27;20659;-84
2022/10/20 09:35:23;;;;;;;3.23;2.40;;;14.80;99.90;;;;;;5134243;27;20710;-86
2022/10/20 09:37:54;;;;;;;4.00;3.37;;;14.90;99.90;;;;;;5134820;27;20646;-84
2022/10/20 09:40:23;;;;;;;4.17;2.90;;;14.90;99.90;;;;;;5135737;27;20660;-83
2022/10/20 09:42:54;;;;;;;2.57;2.03;;;14.90;99.90;;;;;;5134113;27;20639;-83
2022/10/20 09:45:23;;;;;;;2.90;2.07;;;14.90;99.90;;;;;;5135175;27;21286;-85
2022/10/20 09:47:54;;;;;;;3.07;2.80;;;14.90;99.90;;;;;;5133543;27;20603;-84
2022/10/20 09:50:26;;;;;;;3.80;2.90;;;15.40;99.90;;;;;;5133921;27;20619;-83
2022/10/20 09:52:54;;;;;;;3.10;2.77;;;14.90;99.90;;;;;;5133073;27;20619;-84
2022/10/20 09:55:27;;;;;;;2.53;2.33;;;14.80;99.90;;;;;;5132639;27;20645;-85
2022/10/20 09:57:54;;;;;;;3.23;2.00;;;14.90;99.90;;;;;;5133261;27;20617;-84
2022/10/20 10:00:27;;;;;;;3.20;2.60;;;15.00;99.90;;;;;;5133286;27;20623;-84
2022/10/20 10:03:20;;;;;;;3.67;2.40;;;15.00;99.90;;;;;;5133260;27;20757;-83
2022/10/20 10:05:49;;;;;;;2.40;2.20;;;15.00;99.90;;;;;;5111798;27;20647;-84
2022/10/20 10:08:17;;;;;;;2.43;2.20;;;15.20;99.90;;;;;;5113252;28;20620;-84
2022/10/20 10:10:45;;;;;;;2.70;2.50;;;15.00;99.90;;;;;;5113090;28;20645;-84
2022/10/20 10:13:24;;;;;;;2.60;2.40;;;15.10;99.90;;;;;;5124528;27;20607;-83
2022/10/20 10:16:04;;;;;;;2.60;2.40;;;15.30;99.90;;;;;;5115720;27;21149;-85
2022/10/20 10:18:34;;;;;;;2.73;2.43;;;15.30;99.90;;;;;;5132303;27;20607;-84
2022/10/20 10:21:03;;;;;;;3.40;2.37;;;15.30;99.90;;;;;;5132678;27;21192;-82
2022/10/20 10:23:32;;;;;;;2.60;2.40;;;15.20;99.90;;;;;;5133254;27;20631;-83
2022/10/20 10:26:00;;;;;;;2.20;2.00;;;15.30;99.90;;;;;;5133162;27;20622;-84
2022/10/20 10:28:36;;;;;;;2.50;1.70;;;15.30;99.90;;;;;;5132867;27;20599;-83
2022/10/20 10:31:23;;;;;;;3.40;3.10;;;15.40;99.90;;;;;;5132969;27;20713;-83
2022/10/20 10:33:55;;;;;;;3.67;2.43;;;15.30;99.90;;;;;;5132905;27;20614;-82
2022/10/20 10:36:30;;;;;;;1.60;1.50;;;15.60;99.90;;;;;;5132224;27;20650;-83
2022/10/20 10:38:58;;;;;;;2.83;2.07;;;15.60;99.90;;;;;;5132648;27;20665;-84
2022/10/20 10:41:35;;;;;;;2.40;1.83;;;15.60;99.90;;;;;;5113339;28;20660;-84
2022/10/20 10:44:10;;;;;;;3.00;2.03;;;15.60;99.90;;;;;;5114021;28;20607;-84
2022/10/20 10:46:43;;;;;;;2.70;2.50;;;15.70;99.90;;;;;;5113376;28;20614;-83
2022/10/20 10:49:46;;;;;;;2.30;2.03;;;15.80;99.90;;;;;;5113752;28;20607;-84
2022/10/20 10:52:26;;;;;;;2.23;1.93;;;15.80;99.90;;;;;;5114313;28;20730;-86
2022/10/20 10:55:03;;;;;;;2.17;1.97;;;15.80;99.90;;;;;;5127116;27;20661;-86
2022/10/20 10:57:33;;;;;;;3.07;1.90;;;16.60;99.90;;;;;;5133873;27;20625;-87
2022/10/20 11:00:06;;;;;;;3.47;2.87;;;15.50;99.90;;;;;;5134657;27;20615;-85
2022/10/20 11:03:03;;;;;;;1.90;1.50;;;15.60;99.90;;;;;;5135551;28;20654;-84
2022/10/20 11:05:53;;;;;;;3.37;2.13;;;15.60;99.90;;;;;;5134267;28;20706;-85
2022/10/20 11:08:34;;;;;;;2.87;2.67;;;15.50;99.90;;;;;;5134027;28;20619;-84
2022/10/20 11:11:11;;;;;;;3.10;2.57;;;15.60;99.90;;;;;;5135170;28;20611;-84
2022/10/20 11:13:43;;;;;;;2.83;2.63;;;15.60;99.90;;;;;;5127650;27;20607;-86
2022/10/20 11:16:25;;;;;;;3.23;2.10;;;15.60;99.90;;;;;;5118057;28;20611;-84
2022/10/20 11:19:10;;;;;;;3.60;2.00;;;15.70;99.90;;;;;;5134153;28;20658;-84
2022/10/20 11:21:49;;;;;;;2.30;2.03;;;16.30;99.90;;;;;;5134609;28;20669;-86
2022/10/20 11:24:39;;;;;;;2.70;2.50;;;15.80;99.90;;;;;;5133731;27;20718;-85
2022/10/20 11:27:11;;;;;;;1.33;1.23;;;15.80;99.90;;;;;;5131517;28;21033;-87
2022/10/20 11:29:42;;;;;;;2.23;2.10;;;15.80;99.90;;;;;;5132624;27;20671;-84
2022/10/20 11:32:18;;;;;;;3.70;2.50;;;15.90;99.90;;;;;;5132700;28;20701;-84
2022/10/20 11:34:54;;;;;;;4.13;2.40;;;15.90;99.90;;;;;;5113105;28;20627;-86
2022/10/20 11:37:25;;;;;;;1.60;1.50;;;16.10;99.90;;;;;;5127495;28;20656;-87
2022/10/20 11:39:58;;;;;;;5.30;3.20;;;16.00;99.90;;;;;;5113237;28;20626;-86
2022/10/20 11:42:31;;;;;;;2.37;2.17;;;16.00;99.90;;;;;;5113189;28;20663;-85
2022/10/20 11:45:01;;;;;;;2.67;2.47;;;16.00;99.90;;;;;;5114003;28;20606;-86
2022/10/20 11:47:35;;;;;;;3.00;1.97;;;16.10;99.90;;;;;;5114093;28;20953;-87
2022/10/20 11:50:05;;;;;;;4.23;2.10;;;16.00;99.90;;;;;;5113137;28;20656;-86
2022/10/20 11:53:08;;;;;;;3.13;2.50;;;16.00;99.90;;;;;;5120852;28;20623;-84
2022/10/20 11:55:55;;;;;;;3.13;2.57;;;16.10;99.90;;;;;;5112314;27;20722;-86
2022/10/20 11:58:42;;;;;;;3.80;3.00;;;16.00;99.90;;;;;;5134347;27;20613;-83
2022/10/20 12:01:33;;;;;;;3.70;2.27;;;16.10;99.90;;;;;;5137770;27;20615;-87
2022/10/20 12:04:35;;;;;;;1.77;1.63;;;16.00;99.90;;;;;;5132343;27;20611;-84
2022/10/20 12:07:34;;;;;;;2.83;2.50;;;16.10;99.90;;;;;;5114806;28;20616;-84
2022/10/20 12:10:21;;;;;;;2.73;2.00;;;16.10;99.90;;;;;;5099678;28;20627;-86
2022/10/20 12:13:00;;;;;;;3.93;2.87;;;16.10;99.90;;;;;;5122832;27;20665;-84
2022/10/20 12:15:28;;;;;;;2.83;2.43;;;16.10;99.90;;;;;;5115666;28;20690;-85
2022/10/20 12:17:58;;;;;;;3.50;2.77;;;16.10;99.90;;;;;;5135441;27;20691;-85
2022/10/20 12:20:55;;;;;;;3.03;2.70;;;16.10;99.90;;;;;;5127504;27;20654;-85
2022/10/20 12:24:06;;;;;;;2.83;2.63;;;16.10;99.90;;;;;;5114286;28;21261;-86
2022/10/20 12:27:04;;;;;;;2.67;2.37;;;16.10;99.90;;;;;;5116300;28;20619;-87
2022/10/20 12:29:52;;;;;;;2.77;2.47;;;16.10;99.90;;;;;;5115050;28;20615;-84
2022/10/20 12:32:38;;;;;;;2.87;2.60;;;16.10;99.90;;;;;;5117964;28;20641;-84
2022/10/20 12:35:27;;;;;;;4.47;3.03;;;16.20;99.90;;;;;;5136975;27;20630;-86
2022/10/20 12:37:56;;;;;;;2.90;2.60;;;16.30;99.90;;;;;;5136067;27;20681;-86
2022/10/20 12:40:29;;;;;;;4.70;2.97;;;16.20;99.90;;;;;;5137724;27;20630;-85
2022/10/20 12:42:57;;;;;;;2.67;2.47;;;16.20;99.90;;;;;;5137136;27;20711;-86
2022/10/20 12:45:35;;;;;;;2.73;2.20;;;16.20;99.90;;;;;;5137885;27;20606;-86
2022/10/20 12:48:04;;;;;;;3.33;2.37;;;16.20;99.90;;;;;;5136352;27;21339;-86
2022/10/20 12:50:35;;;;;;;2.30;1.93;;;16.20;99.90;;;;;;5136340;27;20729;-87
2022/10/20 12:53:12;;;;;;;3.90;2.87;;;16.10;99.90;;;;;;5138955;27;20645;-85
2022/10/20 12:55:41;;;;;;;2.47;2.37;;;16.10;99.90;;;;;;5137492;27;20641;-87
2022/10/20 12:58:13;;;;;;;2.97;2.60;;;16.10;99.90;;;;;;5136449;27;20634;-85
2022/10/20 13:01:10;;;;;;;2.83;2.53;;;16.20;99.90;;;;;;5135985;27;20626;-86
2022/10/20 13:03:41;;;;;;;2.67;2.23;;;16.00;99.90;;;;;;5135192;27;20704;-85
2022/10/20 13:06:42;;;;;;;2.53;2.20;;;16.00;99.90;;;;;;5136263;27;20659;-85
2022/10/20 13:09:21;;;;;;;4.33;2.93;;;16.10;99.90;;;;;;5135921;27;20702;-87
2022/10/20 13:12:04;;;;;;;2.47;2.13;;;16.00;99.90;;;;;;5135222;27;20619;-87